createdAt,value
2019-01-23T00:00:38.064Z,20.88
2019-01-23T00:03:07.458Z,20.48
2019-01-23T00:05:36.543Z,19.85
2019-01-23T00:08:06.056Z,18.77
2019-01-23T00:10:35.651Z,20.55
2019-01-23T00:13:04.723Z,20.75
2019-01-23T00:15:33.848Z,21.73
2019-01-23T00:18:02.933Z,21.33
2019-01-23T00:20:32.009Z,20.25
2019-01-23T00:23:01.446Z,20.15
2019-01-23T00:25:30.842Z,20.80
2019-01-23T00:28:00.251Z,19.23
2019-01-23T00:30:29.392Z,21.00
2019-01-23T00:32:58.742Z,17.80
2019-01-23T00:35:27.813Z,21.25
2019-01-23T00:37:56.938Z,20.88
2019-01-23T00:40:26.344Z,21.95
2019-01-23T00:42:55.742Z,20.05
2019-01-23T00:45:25.148Z,21.17
2019-01-23T00:47:54.213Z,21.15
2019-01-23T00:50:23.278Z,21.23
2019-01-23T00:52:52.414Z,22.13
2019-01-23T00:55:21.485Z,21.70
2019-01-23T00:57:50.559Z,19.85
2019-01-23T01:00:26.954Z,19.40
2019-01-23T01:02:56.295Z,19.52
2019-01-23T01:05:25.382Z,21.82
2019-01-23T01:07:54.524Z,21.37
2019-01-23T01:10:23.593Z,20.00
2019-01-23T01:12:52.983Z,20.62
2019-01-23T01:15:22.373Z,20.08
2019-01-23T01:17:51.486Z,21.15
2019-01-23T01:20:20.574Z,17.40
2019-01-23T01:22:49.683Z,19.75
2019-01-23T01:25:19.114Z,21.62
2019-01-23T01:27:48.180Z,20.55
2019-01-23T01:30:23.716Z,20.75
2019-01-23T01:32:53.117Z,17.80
2019-01-23T01:35:22.191Z,20.40
2019-01-23T01:37:51.303Z,20.70
2019-01-23T01:40:20.720Z,17.77
2019-01-23T01:42:49.783Z,20.40
2019-01-23T01:45:18.908Z,18.90
2019-01-23T01:47:48.027Z,21.10
2019-01-23T01:50:19.604Z,18.17
2019-01-23T01:52:48.722Z,19.77
2019-01-23T01:55:17.783Z,22.60
2019-01-23T01:57:47.143Z,19.12
2019-01-23T02:00:22.770Z,18.60
2019-01-23T02:02:51.836Z,21.80
2019-01-23T02:05:20.913Z,20.10
2019-01-23T02:07:50.023Z,21.25
2019-01-23T02:10:20.703Z,19.73
2019-01-23T02:12:49.762Z,20.08
2019-01-23T02:15:19.292Z,19.52
2019-01-23T02:17:48.690Z,20.05
2019-01-23T02:20:21.374Z,21.30
2019-01-23T02:22:50.795Z,13.58
2019-01-23T02:25:20.598Z,20.23
2019-01-23T02:27:50.249Z,17.37
2019-01-23T02:30:21.995Z,16.62
2019-01-23T02:32:51.359Z,21.12
2019-01-23T02:35:20.435Z,20.52
2019-01-23T02:37:49.558Z,21.48
2019-01-23T02:40:21.319Z,20.30
2019-01-23T02:42:50.721Z,20.48
2019-01-23T02:45:20.143Z,20.43
2019-01-23T02:47:49.781Z,19.62
2019-01-23T02:50:19.144Z,21.20
2019-01-23T02:52:48.286Z,20.92
2019-01-23T02:55:17.362Z,21.00
2019-01-23T02:57:46.443Z,19.62
2019-01-23T03:00:19.554Z,19.48
2019-01-23T03:02:49.564Z,21.45
2019-01-23T03:05:20.038Z,19.37
2019-01-23T03:07:49.154Z,21.97
2019-01-23T03:10:19.992Z,20.23
2019-01-23T03:12:49.381Z,19.10
2019-01-23T03:15:18.996Z,18.20
2019-01-23T03:17:48.072Z,22.98
2019-01-23T03:20:18.602Z,20.77
2019-01-23T03:22:47.716Z,21.05
2019-01-23T03:25:17.104Z,22.07
2019-01-23T03:27:46.169Z,18.95
2019-01-23T03:30:21.163Z,21.33
2019-01-23T03:32:50.580Z,20.02
2019-01-23T03:35:19.611Z,18.05
2019-01-23T03:37:48.743Z,21.33
2019-01-23T03:40:21.900Z,15.72
2019-01-23T03:42:51.230Z,20.32
2019-01-23T03:45:20.922Z,22.75
2019-01-23T03:47:50.326Z,20.12
2019-01-23T03:50:20.059Z,19.27
2019-01-23T03:52:49.174Z,17.73
2019-01-23T03:55:19.280Z,21.42
2019-01-23T03:57:48.661Z,19.02
2019-01-23T04:00:20.772Z,20.27
2019-01-23T04:02:51.164Z,19.17
2019-01-23T04:05:20.556Z,20.85
2019-01-23T04:07:49.890Z,21.40
2019-01-23T04:10:19.022Z,20.52
2019-01-23T04:12:48.109Z,20.95
2019-01-23T04:15:18.041Z,20.30
2019-01-23T04:17:47.106Z,17.12
2019-01-23T04:20:19.379Z,11.57
2019-01-23T04:22:48.510Z,18.05
2019-01-23T04:25:17.571Z,18.98
2019-01-23T04:27:46.699Z,20.77
2019-01-23T04:30:24.358Z,21.25
2019-01-23T04:32:53.717Z,20.97
2019-01-23T04:35:22.783Z,22.32
2019-01-23T04:37:52.508Z,19.85
2019-01-23T04:40:21.829Z,20.02
2019-01-23T04:42:50.907Z,21.70
2019-01-23T04:45:20.196Z,21.70
2019-01-23T04:47:49.521Z,21.02
2019-01-23T04:50:19.263Z,19.77
2019-01-23T04:52:50.101Z,21.37
2019-01-23T04:55:19.179Z,20.48
2019-01-23T04:57:48.312Z,20.85
2019-01-23T05:00:19.087Z,19.80
2019-01-23T05:02:48.162Z,20.57
2019-01-23T05:05:17.238Z,23.87
2019-01-23T05:07:46.417Z,22.50
2019-01-23T05:10:15.510Z,22.70
2019-01-23T05:12:44.569Z,21.27
2019-01-23T05:15:13.693Z,10.25
2019-01-23T05:17:43.011Z,22.42
2019-01-23T05:20:16.415Z,20.35
2019-01-23T05:22:45.527Z,19.87
2019-01-23T05:25:14.832Z,18.95
2019-01-23T05:27:44.123Z,20.70
2019-01-23T05:30:23.489Z,21.50
2019-01-23T05:32:52.810Z,18.00
2019-01-23T05:35:21.869Z,20.57
2019-01-23T05:37:51.005Z,14.98
2019-01-23T05:40:20.072Z,15.93
2019-01-23T05:42:49.136Z,20.12
2019-01-23T05:45:18.497Z,20.97
2019-01-23T05:47:47.821Z,18.90
2019-01-23T05:50:18.967Z,18.90
2019-01-23T05:52:49.703Z,19.12
2019-01-23T05:55:19.034Z,18.23
2019-01-23T05:57:48.233Z,20.85
2019-01-23T06:00:21.154Z,19.75
2019-01-23T06:02:50.528Z,20.62
2019-01-23T06:05:21.271Z,19.57
2019-01-23T06:07:50.389Z,19.55
2019-01-23T06:10:19.771Z,18.90
2019-01-23T06:12:49.160Z,19.30
2019-01-23T06:15:18.280Z,19.67
2019-01-23T06:17:47.348Z,19.02
2019-01-23T06:20:20.193Z,19.73
2019-01-23T06:22:49.407Z,18.55
2019-01-23T06:25:18.513Z,19.62
2019-01-23T06:27:47.644Z,18.40
2019-01-23T06:30:23.311Z,18.32
2019-01-23T06:32:52.388Z,18.82
2019-01-23T06:35:21.461Z,19.27
2019-01-23T06:37:50.577Z,19.05
2019-01-23T06:40:21.019Z,18.87
2019-01-23T06:42:50.087Z,19.10
2019-01-23T06:45:20.002Z,19.80
2019-01-23T06:47:49.912Z,18.27
2019-01-23T06:50:21.392Z,16.42
2019-01-23T06:52:50.499Z,19.67
2019-01-23T06:55:19.866Z,18.75
2019-01-23T06:57:48.930Z,18.57
2019-01-23T07:00:21.937Z,19.95
2019-01-23T07:02:51.349Z,18.35
2019-01-23T07:05:20.428Z,18.57
2019-01-23T07:07:49.861Z,18.50
2019-01-23T07:10:24.591Z,19.02
2019-01-23T07:12:53.757Z,19.12
2019-01-23T07:15:23.105Z,19.65
2019-01-23T07:17:52.366Z,19.55
2019-01-23T07:20:24.429Z,19.32
2019-01-23T07:22:53.512Z,18.87
2019-01-23T07:25:22.763Z,23.47
2019-01-23T07:27:51.900Z,23.15
2019-01-23T07:30:36.893Z,23.38
2019-01-23T07:33:06.035Z,23.65
2019-01-23T07:35:35.088Z,23.07
2019-01-23T07:38:04.162Z,24.37
2019-01-23T07:40:33.281Z,23.73
2019-01-23T07:43:02.353Z,22.75
2019-01-23T07:45:31.686Z,23.20
2019-01-23T07:48:00.786Z,24.13
2019-01-23T07:50:30.184Z,24.10
2019-01-23T07:52:59.303Z,23.30
2019-01-23T07:55:28.387Z,24.33
2019-01-23T07:57:57.492Z,24.43
2019-01-23T08:00:31.482Z,24.63
2019-01-23T08:02:58.938Z,23.73
2019-01-23T08:05:27.973Z,24.33
2019-01-23T08:07:57.063Z,24.03
2019-01-23T08:10:26.126Z,25.43
2019-01-23T08:12:55.512Z,25.57
2019-01-23T08:15:28.637Z,24.07
2019-01-23T08:17:57.713Z,25.67
2019-01-23T08:20:29.380Z,25.97
2019-01-23T08:22:58.929Z,24.33
2019-01-23T08:25:28.034Z,25.33
2019-01-23T08:27:57.308Z,25.00
2019-01-23T08:30:26.744Z,24.73
2019-01-23T08:32:55.866Z,26.47
2019-01-23T08:35:25.006Z,25.27
2019-01-23T08:37:54.443Z,25.63
2019-01-23T08:40:23.554Z,25.60
2019-01-23T08:42:52.596Z,25.20
2019-01-23T08:45:21.946Z,26.83
2019-01-23T08:47:51.109Z,25.70
2019-01-23T08:50:27.701Z,24.73
2019-01-23T08:52:57.066Z,25.13
2019-01-23T08:55:26.111Z,26.07
2019-01-23T08:57:55.153Z,26.13
2019-01-23T09:00:24.591Z,26.75
2019-01-23T09:02:53.634Z,25.83
2019-01-23T09:05:23.147Z,25.87
2019-01-23T09:07:52.255Z,27.48
2019-01-23T09:10:27.438Z,25.70
2019-01-23T09:12:56.824Z,26.40
2019-01-23T09:15:28.505Z,26.17
2019-01-23T09:17:57.920Z,27.50
2019-01-23T09:20:27.039Z,26.75
2019-01-23T09:22:56.119Z,24.77
2019-01-23T09:25:27.658Z,23.67
2019-01-23T09:27:56.801Z,25.40
2019-01-23T09:30:36.879Z,24.37
2019-01-23T09:33:19.295Z,24.53
2019-01-23T09:36:20.419Z,26.70
2019-01-23T09:39:19.895Z,27.30
2019-01-23T09:42:02.970Z,26.10
2019-01-23T09:44:49.075Z,26.10
2019-01-23T09:47:31.674Z,25.75
2019-01-23T09:50:29.660Z,25.77
2019-01-23T09:53:18.473Z,26.40
2019-01-23T09:55:47.893Z,26.20
2019-01-23T09:58:16.973Z,25.80
2019-01-23T10:00:46.308Z,25.17
2019-01-23T10:03:15.578Z,24.87
2019-01-23T10:05:44.645Z,25.97
2019-01-23T10:08:13.702Z,26.25
2019-01-23T10:10:42.815Z,24.25
2019-01-23T10:13:11.882Z,25.80
2019-01-23T10:15:45.966Z,25.23
2019-01-23T10:18:15.386Z,25.23
2019-01-23T10:20:44.781Z,26.10
2019-01-23T10:23:13.843Z,25.30
2019-01-23T10:25:42.954Z,24.85
2019-01-23T10:28:12.485Z,24.77
2019-01-23T10:30:41.939Z,25.48
2019-01-23T10:33:11.396Z,25.80
2019-01-23T10:35:40.520Z,25.68
2019-01-23T10:38:09.894Z,25.32
2019-01-23T10:40:39.274Z,25.07
2019-01-23T10:43:08.343Z,32.65
2019-01-23T10:45:37.689Z,26.57
2019-01-23T10:48:06.894Z,24.57
2019-01-23T10:50:36.008Z,25.60
2019-01-23T10:53:05.072Z,25.55
2019-01-23T10:56:48.819Z,24.32
2019-01-23T11:00:00.321Z,25.32
2019-01-23T11:02:31.365Z,23.22
2019-01-23T11:05:00.757Z,25.20
2019-01-23T11:07:29.827Z,25.80
2019-01-23T11:09:58.950Z,25.05
2019-01-23T11:12:28.043Z,25.45
2019-01-23T11:14:57.072Z,25.73
2019-01-23T11:17:26.543Z,25.20
2019-01-23T11:19:55.956Z,24.18
2019-01-23T11:22:25.062Z,24.73
2019-01-23T11:24:54.140Z,25.27
2019-01-23T11:27:23.215Z,24.53
2019-01-23T11:29:52.279Z,25.73
2019-01-23T11:32:21.356Z,25.40
2019-01-23T11:34:50.387Z,24.90
2019-01-23T11:37:19.420Z,23.57
2019-01-23T11:39:48.498Z,25.57
2019-01-23T11:42:17.530Z,24.33
2019-01-23T11:44:46.884Z,23.70
2019-01-23T11:47:16.002Z,24.15
2019-01-23T11:49:45.056Z,24.77
2019-01-23T11:52:14.185Z,23.90
2019-01-23T11:54:43.605Z,24.67
2019-01-23T11:57:12.644Z,23.57
2019-01-23T11:59:41.982Z,23.40
2019-01-23T12:02:11.154Z,24.80
2019-01-23T12:04:40.474Z,26.70
2019-01-23T12:07:09.513Z,27.70
2019-01-23T12:09:38.588Z,24.95
2019-01-23T12:12:07.620Z,24.27
2019-01-23T12:14:36.968Z,25.50
2019-01-23T12:17:06.096Z,23.35
2019-01-23T12:19:35.167Z,24.77
2019-01-23T12:22:04.455Z,23.43
2019-01-23T12:24:33.870Z,23.73
2019-01-23T12:27:02.898Z,24.17
2019-01-23T12:29:31.961Z,25.37
2019-01-23T12:32:01.295Z,22.83
2019-01-23T12:34:30.330Z,23.83
2019-01-23T12:36:59.387Z,23.05
2019-01-23T12:39:28.738Z,23.67
2019-01-23T12:41:58.036Z,23.77
2019-01-23T12:44:27.334Z,24.73
2019-01-23T12:46:57.204Z,24.33
2019-01-23T12:49:26.267Z,24.97
2019-01-23T12:51:55.639Z,25.15
2019-01-23T12:54:24.972Z,24.27
2019-01-23T12:56:54.051Z,23.65
2019-01-23T12:59:23.168Z,24.00
2019-01-23T13:01:52.240Z,22.83
2019-01-23T13:04:21.297Z,22.50
2019-01-23T13:06:50.370Z,23.07
2019-01-23T13:09:19.448Z,22.85
2019-01-23T13:11:48.807Z,22.33
2019-01-23T13:14:17.843Z,23.07
2019-01-23T13:16:47.322Z,22.43
2019-01-23T13:19:16.442Z,22.83
2019-01-23T13:21:45.556Z,22.67
2019-01-23T13:24:14.602Z,22.93
2019-01-23T13:26:44.209Z,23.70
2019-01-23T13:29:13.300Z,24.17
2019-01-23T13:31:48.883Z,23.12
2019-01-23T13:34:13.366Z,24.27
2019-01-23T13:36:42.735Z,24.97
2019-01-23T13:39:11.848Z,24.80
2019-01-23T13:41:40.878Z,23.75
2019-01-23T13:44:09.967Z,24.63
2019-01-23T13:46:39.002Z,23.40
2019-01-23T13:49:09.739Z,22.97
2019-01-23T13:51:39.076Z,23.87
2019-01-23T13:54:08.460Z,23.03
2019-01-23T13:56:37.578Z,24.10
2019-01-23T13:59:06.705Z,22.57
2019-01-23T14:01:36.037Z,23.23
2019-01-23T14:04:05.205Z,23.70
2019-01-23T14:06:34.396Z,22.43
2019-01-23T14:09:07.199Z,23.90
2019-01-23T14:11:36.376Z,22.90
2019-01-23T14:14:05.794Z,24.27
2019-01-23T14:16:35.055Z,24.50
2019-01-23T14:19:10.122Z,23.10
2019-01-23T14:21:39.448Z,23.57
2019-01-23T14:24:08.486Z,28.40
2019-01-23T14:26:37.575Z,26.03
2019-01-23T14:29:06.951Z,24.60
2019-01-23T14:31:35.984Z,24.60
2019-01-23T14:34:05.113Z,24.33
2019-01-23T14:36:34.122Z,25.90
2019-01-23T14:39:04.558Z,27.43
2019-01-23T14:41:33.649Z,29.03
2019-01-23T14:44:02.714Z,26.23
2019-01-23T14:46:31.806Z,26.40
2019-01-23T14:49:00.881Z,26.77
2019-01-23T14:51:29.924Z,28.67
2019-01-23T14:53:58.992Z,28.87
2019-01-23T14:56:28.075Z,26.75
2019-01-23T14:58:57.413Z,28.67
2019-01-23T15:01:26.519Z,28.50
2019-01-23T15:03:55.916Z,28.35
2019-01-23T15:06:25.325Z,26.67
2019-01-23T15:08:54.558Z,27.10
2019-01-23T15:11:23.925Z,26.47
2019-01-23T15:13:53.035Z,25.30
2019-01-23T15:16:22.425Z,24.60
2019-01-23T15:18:51.603Z,24.47
2019-01-23T15:21:20.824Z,24.83
2019-01-23T15:23:49.981Z,21.40
2019-01-23T15:26:19.525Z,22.77
2019-01-23T15:28:48.641Z,23.27
2019-01-23T15:31:17.740Z,22.90
2019-01-23T15:33:46.920Z,21.47
2019-01-23T15:36:16.112Z,22.40
2019-01-23T15:38:45.520Z,23.40
2019-01-23T15:41:14.676Z,22.30
2019-01-23T15:43:43.801Z,22.43
2019-01-23T15:46:13.203Z,22.93
2019-01-23T15:48:42.395Z,23.30
2019-01-23T15:51:11.801Z,20.97
2019-01-23T15:53:41.428Z,20.20
2019-01-23T15:56:14.917Z,18.90
2019-01-23T15:58:44.195Z,19.55
2019-01-23T16:01:13.335Z,22.00
2019-01-23T16:03:42.648Z,19.07
2019-01-23T16:06:11.988Z,20.03
2019-01-23T16:08:41.512Z,19.45
2019-01-23T16:11:11.004Z,20.12
2019-01-23T16:13:42.352Z,20.40
2019-01-23T16:16:11.282Z,20.13
2019-01-23T16:18:40.752Z,21.33
2019-01-23T16:21:09.885Z,20.08
2019-01-23T16:23:39.251Z,21.27
2019-01-23T16:26:08.642Z,22.40
2019-01-23T16:28:37.773Z,22.10
2019-01-23T16:31:07.011Z,22.47
2019-01-23T16:33:36.153Z,22.87
2019-01-23T16:36:05.255Z,23.47
2019-01-23T16:38:34.379Z,21.60
2019-01-23T16:41:03.577Z,22.63
2019-01-23T16:43:32.722Z,21.10
2019-01-23T16:46:01.940Z,21.90
2019-01-23T16:48:31.212Z,23.13
2019-01-23T16:51:00.356Z,23.45
2019-01-23T16:53:30.049Z,17.87
2019-01-23T16:55:59.774Z,19.62
2019-01-23T16:58:29.859Z,19.07
2019-01-23T17:00:59.115Z,12.45
2019-01-23T17:03:28.838Z,16.52
2019-01-23T17:05:58.375Z,21.52
2019-01-23T17:08:27.875Z,19.95
2019-01-23T17:10:57.654Z,18.27
2019-01-23T17:13:26.923Z,20.23
2019-01-23T17:15:56.394Z,21.77
2019-01-23T17:18:25.831Z,21.45
2019-01-23T17:20:55.222Z,20.27
2019-01-23T17:23:24.483Z,23.10
2019-01-23T17:25:54.224Z,20.72
2019-01-23T17:28:24.020Z,20.75
2019-01-23T17:30:53.311Z,20.35
2019-01-23T17:33:23.154Z,22.65
2019-01-23T17:35:52.641Z,21.27
2019-01-23T17:38:22.755Z,20.97
2019-01-23T17:40:52.267Z,20.32
2019-01-23T17:43:21.987Z,20.80
2019-01-23T17:45:52.156Z,23.27
2019-01-23T17:48:21.928Z,21.52
2019-01-23T17:50:52.306Z,21.12
2019-01-23T17:53:21.829Z,18.40
2019-01-23T17:55:51.487Z,22.98
2019-01-23T17:58:21.527Z,19.92
2019-01-23T18:00:52.508Z,16.10
2019-01-23T18:03:22.130Z,19.77
2019-01-23T18:05:51.742Z,21.65
2019-01-23T18:08:21.653Z,19.60
2019-01-23T18:10:51.493Z,21.57
2019-01-23T18:13:21.214Z,20.02
2019-01-23T18:15:51.088Z,21.85
2019-01-23T18:18:20.921Z,21.55
2019-01-23T18:20:50.688Z,22.45
2019-01-23T18:23:20.824Z,23.98
2019-01-23T18:25:50.980Z,16.80
2019-01-23T18:28:21.030Z,21.50
2019-01-23T18:31:05.002Z,21.23
2019-01-23T18:33:45.416Z,19.57
2019-01-23T18:36:23.282Z,18.75
2019-01-23T18:39:04.110Z,23.15
2019-01-23T18:41:47.681Z,17.85
2019-01-23T18:44:37.853Z,19.52
2019-01-23T18:47:24.660Z,24.05
2019-01-23T18:50:14.340Z,23.57
2019-01-23T18:52:44.492Z,9.80
2019-01-23T18:55:18.343Z,3.15
2019-01-23T18:57:48.651Z,22.50
2019-01-23T19:00:22.528Z,6.25
2019-01-23T19:02:53.123Z,15.93
2019-01-23T19:05:23.315Z,13.62
2019-01-23T19:07:53.770Z,12.68
2019-01-23T19:10:24.310Z,20.00
2019-01-23T19:12:54.583Z,17.62
2019-01-23T19:15:25.100Z,19.40
2019-01-23T19:17:54.994Z,21.48
2019-01-23T19:20:25.473Z,16.77
2019-01-23T19:22:55.832Z,21.35
2019-01-23T19:25:26.205Z,21.85
2019-01-23T19:27:59.598Z,21.48
2019-01-23T19:30:30.075Z,18.65
2019-01-23T19:33:00.322Z,21.10
2019-01-23T19:35:32.760Z,19.20
2019-01-23T19:38:03.205Z,19.77
2019-01-23T19:40:33.736Z,20.40
2019-01-23T19:43:04.011Z,17.27
2019-01-23T19:45:34.486Z,19.10
2019-01-23T19:48:05.046Z,20.32
2019-01-23T19:50:35.277Z,19.45
2019-01-23T19:53:05.460Z,22.85
2019-01-23T19:55:35.927Z,20.97
2019-01-23T19:58:06.245Z,22.50
2019-01-23T20:00:36.485Z,23.92
2019-01-23T20:03:06.716Z,24.45
2019-01-23T20:05:36.964Z,20.80
2019-01-23T20:08:07.149Z,15.45
2019-01-23T20:10:37.565Z,20.62
2019-01-23T20:13:07.903Z,19.65
2019-01-23T20:15:38.184Z,24.02
2019-01-23T20:18:08.286Z,21.07
2019-01-23T20:20:37.951Z,24.27
2019-01-23T20:23:08.064Z,23.38
2019-01-23T20:25:38.348Z,23.05
2019-01-23T20:28:09.172Z,23.15
2019-01-23T20:30:39.391Z,21.75
2019-01-23T20:33:09.317Z,23.67
2019-01-23T20:35:39.178Z,23.05
2019-01-23T20:38:08.850Z,25.75
2019-01-23T20:40:38.749Z,25.72
2019-01-23T20:43:08.888Z,26.05
2019-01-23T20:45:38.832Z,31.20
2019-01-23T20:48:09.704Z,30.60
2019-01-23T20:50:39.994Z,30.17
2019-01-23T20:53:09.867Z,29.70
2019-01-23T20:55:40.184Z,30.68
2019-01-23T20:58:10.359Z,31.48
2019-01-23T21:00:40.869Z,29.67
2019-01-23T21:03:11.048Z,30.52
2019-01-23T21:05:41.081Z,29.87
2019-01-23T21:08:11.200Z,31.07
2019-01-23T21:10:41.106Z,30.15
2019-01-23T21:13:11.070Z,31.20
2019-01-23T21:15:41.223Z,30.40
2019-01-23T21:18:10.847Z,32.20
2019-01-23T21:20:40.156Z,32.38
2019-01-23T21:23:09.728Z,31.17
2019-01-23T21:25:39.422Z,31.90
2019-01-23T21:28:09.327Z,32.25
2019-01-23T21:30:39.191Z,28.57
2019-01-23T21:33:09.109Z,31.50
2019-01-23T21:35:38.735Z,31.65
2019-01-23T21:38:08.626Z,32.00
2019-01-23T21:40:38.316Z,31.95
2019-01-23T21:43:08.204Z,32.10
2019-01-23T21:45:37.967Z,31.57
2019-01-23T21:48:07.932Z,31.60
2019-01-23T21:50:37.462Z,31.90
2019-01-23T21:53:06.706Z,32.83
2019-01-23T21:55:36.268Z,30.88
2019-01-23T21:58:06.389Z,30.82
2019-01-23T22:00:42.558Z,30.72
2019-01-23T22:03:12.488Z,31.65
2019-01-23T22:05:41.873Z,31.75
2019-01-23T22:08:11.281Z,34.00
2019-01-23T22:10:40.394Z,31.62
2019-01-23T22:13:09.538Z,32.58
2019-01-23T22:15:38.670Z,30.77
2019-01-23T22:18:08.195Z,30.85
2019-01-23T22:20:37.257Z,26.23
2019-01-23T22:23:06.658Z,26.40
2019-01-23T22:25:35.769Z,27.13
2019-01-23T22:28:06.298Z,25.80
2019-01-23T22:30:35.433Z,26.20
2019-01-23T22:33:04.613Z,26.45
2019-01-23T22:35:33.681Z,27.00
2019-01-23T22:38:03.089Z,27.20
2019-01-23T22:40:32.259Z,27.17
2019-01-23T22:43:01.336Z,28.65
2019-01-23T22:45:30.398Z,28.40
2019-01-23T22:47:59.776Z,26.73
2019-01-23T22:50:29.095Z,25.92
2019-01-23T22:52:58.460Z,26.70
2019-01-23T22:55:27.569Z,25.85
2019-01-23T22:57:56.632Z,26.27
2019-01-23T23:00:35.297Z,26.52
2019-01-23T23:03:04.738Z,13.60
2019-01-23T23:05:34.077Z,24.77
2019-01-23T23:08:03.424Z,26.07
2019-01-23T23:10:32.777Z,27.52
2019-01-23T23:13:02.180Z,28.23
2019-01-23T23:15:31.295Z,26.12
2019-01-23T23:18:00.379Z,26.10
2019-01-23T23:20:29.447Z,25.52
2019-01-23T23:22:58.869Z,26.77
2019-01-23T23:25:27.940Z,26.48
2019-01-23T23:27:57.076Z,28.10
2019-01-23T23:30:26.880Z,25.95
2019-01-23T23:32:55.951Z,26.27
2019-01-23T23:35:25.023Z,27.20
2019-01-23T23:37:54.132Z,26.35
2019-01-23T23:40:23.468Z,24.50
2019-01-23T23:42:52.538Z,26.95
2019-01-23T23:45:21.672Z,26.42
2019-01-23T23:47:50.792Z,27.07
2019-01-23T23:50:20.160Z,25.15
2019-01-23T23:52:49.559Z,26.42
2019-01-23T23:55:18.636Z,27.13
2019-01-23T23:57:47.915Z,26.62
